Putnamville, IN

10:40 AM EDT on May 29, 2015 (GMT -0400)
INDOT | | Change Station
CLOSE
Current Station
Personal Weather Station
Location: Cloverdale, IN
Elevation: 831 ft
Nearby Weather Stations

Elev 831 ft 39.52 °N, 86.80 °W | Updated 39 minutes ago

Mostly Cloudy
Mostly Cloudy
76 °F
Feels Like 78 °F
N
7
Wind Variable Wind from SSW
Gusts 11.0 mph

Today
High -- | Low -- °F
--% Chance of Precip.
Yesterday
High -- | Low -- °F
Precip. -- in
6:23 AM 9:06 PM
Waxing Gibbous, 84% visible
Pressure 30.10 in
Visibility 10.0 miles
Clouds Mostly Cloudy 4000 ft
Mostly Cloudy 4700 ft
Mostly Cloudy 5500 ft
Heat Index 78 °F
Dew Point 65 °F
Humidity 68%
Rainfall in
Snow Depth Not available.
UV 2 out of 12
Pollen 7.30 out of 12
Air Quality Not available.
Flu Activity Sporadic
METAR KHUF 291353Z 19007KT 10SM BKN040 BKN047 BKN055 24/19 A3011 RMK AO2 SLP191 T02390189

More Conditions Fewer Conditions

Pressure 30.10 in
Visibility 10.0 miles
Clouds Mostly Cloudy 4000 ft
Mostly Cloudy 4700 ft
Mostly Cloudy 5500 ft
Heat Index 78 °F
Dew Point 65 °F
Humidity 68%
Rainfall in
Snow Depth Not available.
UV 2 out of 12
Pollen 7.30 out of 12
Air Quality Not available.
Flu Activity Sporadic
METAR KHUF 291353Z 19007KT 10SM BKN040 BKN047 BKN055 24/19 A3011 RMK AO2 SLP191 T02390189

More Conditions Fewer Conditions

10-Day Weather Forecast

Almanac

Astronomy

May. 29, 2015 Rise Set
Actual Time
Civil Twilight
Nautical Twilight
Astronomical Twilight
Moon
Length of Visible Light
Length of Day
Tomorrow will be .
, % of the Moon is Illuminated

Today's Extremes

State Highs State Lows

Community

WunderPhotos

Upload Photos

1,825,288 photos uploaded!

WunderBlogs® & News

Nearby

Air Quality

  Air Quality AQ Index Pollutant
Not available.

Snow Depth

Station Depth Elevation

Earthquake Activity

City Distance Mag. Time & Date
Minimum magnitude displayed is 2.5.

Coastal Water Temperatures

Place Temperature

Stations

Nearby Weather Stations

Station Location Temp. Windchill Dew Point Humidity Wind Precip. Elev Updated Type